createdAt,value
2022-10-01T00:00:18.081Z,18.92
2022-10-01T00:01:49.909Z,18.93
2022-10-01T00:03:22.245Z,18.93
2022-10-01T00:04:53.803Z,18.99
2022-10-01T00:06:25.937Z,19.01
2022-10-01T00:07:57.878Z,19.03
2022-10-01T00:09:29.500Z,19.02
2022-10-01T00:11:01.836Z,18.97
2022-10-01T00:12:33.851Z,18.97
2022-10-01T00:14:05.656Z,18.98
2022-10-01T00:18:11.138Z,18.84
2022-10-01T00:19:42.782Z,18.78
2022-10-01T00:21:16.204Z,18.73
2022-10-01T00:22:47.764Z,18.68
2022-10-01T00:24:19.913Z,18.73
2022-10-01T00:25:53.541Z,18.79
2022-10-01T00:27:25.962Z,18.85
2022-10-01T00:29:00.919Z,18.87
2022-10-01T00:30:34.469Z,18.89
2022-10-01T00:32:07.777Z,18.88
2022-10-01T00:33:39.378Z,18.82
2022-10-01T00:35:10.992Z,18.80
2022-10-01T00:36:42.882Z,18.83
2022-10-01T00:38:15.429Z,18.81
2022-10-01T00:39:47.150Z,18.76
2022-10-01T00:41:18.701Z,18.71
2022-10-01T00:42:50.459Z,18.70
2022-10-01T00:44:32.370Z,18.68
2022-10-01T00:46:06.619Z,18.68
2022-10-01T00:47:41.152Z,18.71
2022-10-01T00:49:15.443Z,18.66
2022-10-01T00:50:49.203Z,18.65
2022-10-01T00:52:22.739Z,18.61
2022-10-01T00:53:54.929Z,18.63
2022-10-01T00:55:27.160Z,18.67
2022-10-01T00:56:59.556Z,18.74
2022-10-01T00:58:31.326Z,18.83
2022-10-01T01:00:04.200Z,18.90
2022-10-01T01:01:36.739Z,18.95
2022-10-01T01:03:08.713Z,18.94
2022-10-01T01:04:41.075Z,18.97
2022-10-01T01:06:12.677Z,18.95
2022-10-01T01:07:46.113Z,18.91
2022-10-01T01:09:18.151Z,18.90
2022-10-01T01:10:50.527Z,18.86
2022-10-01T01:12:37.176Z,18.84
2022-10-01T01:14:26.801Z,18.76
2022-10-01T01:16:07.207Z,18.65
2022-10-01T01:17:43.784Z,18.59
2022-10-01T01:19:33.784Z,18.54
2022-10-01T01:21:08.309Z,18.55
2022-10-01T01:22:42.033Z,18.54
2022-10-01T01:24:25.647Z,18.58
2022-10-01T01:25:57.209Z,18.63
2022-10-01T01:27:38.614Z,18.62
2022-10-01T01:29:18.636Z,18.58
2022-10-01T01:30:50.773Z,18.53
2022-10-01T01:32:31.003Z,18.46
2022-10-01T01:34:02.780Z,18.40
2022-10-01T01:35:35.137Z,18.35
2022-10-01T01:37:12.609Z,18.40
2022-10-01T01:38:46.680Z,18.46
2022-10-01T01:40:18.339Z,18.47
2022-10-01T01:41:50.368Z,18.50
2022-10-01T01:43:26.611Z,18.54
2022-10-01T01:44:59.052Z,18.39
2022-10-01T01:46:33.329Z,18.30
2022-10-01T01:48:05.099Z,18.23
2022-10-01T01:49:38.958Z,18.22
2022-10-01T01:51:37.089Z,18.16
2022-10-01T01:53:09.161Z,18.05
2022-10-01T01:54:40.898Z,17.98
2022-10-01T01:56:12.464Z,17.94
2022-10-01T01:57:44.081Z,17.94
2022-10-01T01:59:16.559Z,17.98
2022-10-01T02:00:48.190Z,17.97
2022-10-01T02:02:20.913Z,17.94
2022-10-01T02:03:52.500Z,17.97
2022-10-01T02:05:26.112Z,17.99
2022-10-01T02:06:57.753Z,18.02
2022-10-01T02:08:37.589Z,18.06
2022-10-01T02:10:27.687Z,18.07
2022-10-01T02:12:22.599Z,18.10
2022-10-01T02:14:09.517Z,18.14
2022-10-01T02:15:44.317Z,18.18
2022-10-01T02:17:16.717Z,18.23
2022-10-01T02:19:05.807Z,18.22
2022-10-01T02:20:42.675Z,18.20
2022-10-01T02:22:30.022Z,18.21
2022-10-01T02:24:03.411Z,18.23
2022-10-01T02:25:36.875Z,18.25
2022-10-01T02:27:11.247Z,18.28
2022-10-01T02:28:42.924Z,18.29
2022-10-01T02:30:15.454Z,18.29
2022-10-01T02:31:47.402Z,18.30
2022-10-01T02:33:20.421Z,18.31
2022-10-01T02:34:52.307Z,18.34
2022-10-01T02:36:24.094Z,18.33
2022-10-01T02:37:56.549Z,18.32
2022-10-01T02:39:28.365Z,18.31
2022-10-01T02:41:01.132Z,18.31
2022-10-01T02:42:32.666Z,18.32
2022-10-01T02:44:14.786Z,18.31
2022-10-01T02:45:47.039Z,18.28
2022-10-01T02:47:20.494Z,18.26
2022-10-01T02:48:52.073Z,18.24
2022-10-01T02:50:24.502Z,18.24
2022-10-01T02:52:02.276Z,18.23
2022-10-01T02:53:44.509Z,18.23
2022-10-01T02:55:23.011Z,18.25
2022-10-01T02:57:13.226Z,18.25
2022-10-01T02:58:44.950Z,18.25
2022-10-01T03:00:17.315Z,18.26
2022-10-01T03:01:48.914Z,18.27
2022-10-01T03:03:20.792Z,18.30
2022-10-01T03:04:52.503Z,18.33
2022-10-01T03:06:24.120Z,18.37
2022-10-01T03:07:55.708Z,18.37
2022-10-01T03:09:27.575Z,18.39
2022-10-01T03:10:59.171Z,18.42
2022-10-01T03:12:30.715Z,18.44
2022-10-01T03:14:03.232Z,18.46
2022-10-01T03:15:34.976Z,18.48
2022-10-01T03:17:07.463Z,18.50
2022-10-01T03:18:39.017Z,18.54
2022-10-01T03:20:10.653Z,18.57
2022-10-01T03:21:42.310Z,18.59
2022-10-01T03:23:13.919Z,18.59
2022-10-01T03:24:45.585Z,18.60
2022-10-01T03:26:17.344Z,18.59
2022-10-01T03:27:49.784Z,18.58
2022-10-01T03:29:21.447Z,18.58
2022-10-01T03:30:53.056Z,18.57
2022-10-01T03:32:24.702Z,18.56
2022-10-01T03:34:00.561Z,18.54
2022-10-01T03:35:32.462Z,18.49
2022-10-01T03:37:04.205Z,18.45
2022-10-01T03:38:35.782Z,18.43
2022-10-01T03:40:08.010Z,18.40
2022-10-01T03:41:40.286Z,18.40
2022-10-01T03:43:12.390Z,18.36
2022-10-01T03:44:44.190Z,18.30
2022-10-01T03:46:15.870Z,18.31
2022-10-01T03:47:53.669Z,18.30
2022-10-01T03:49:25.344Z,18.28
2022-10-01T03:50:58.160Z,18.25
2022-10-01T03:52:30.514Z,18.18
2022-10-01T03:54:02.068Z,18.17
2022-10-01T03:55:33.612Z,18.19
2022-10-01T03:57:06.227Z,18.17
2022-10-01T03:58:37.807Z,18.16
2022-10-01T04:00:09.802Z,18.19
2022-10-01T04:01:41.461Z,18.22
2022-10-01T04:03:13.786Z,18.28
2022-10-01T04:04:45.403Z,18.29
2022-10-01T04:06:16.976Z,18.27
2022-10-01T04:07:50.287Z,18.28
2022-10-01T04:09:21.933Z,18.29
2022-10-01T04:10:53.441Z,18.35
2022-10-01T04:12:25.122Z,18.41
2022-10-01T04:13:58.098Z,18.45
2022-10-01T04:15:29.750Z,18.49
2022-10-01T04:17:01.455Z,18.59
2022-10-01T04:18:33.390Z,18.63
2022-10-01T04:20:05.327Z,18.69
2022-10-01T04:21:37.513Z,18.74
2022-10-01T04:23:09.559Z,18.77
2022-10-01T04:24:41.238Z,18.80
2022-10-01T04:26:12.924Z,18.86
2022-10-01T04:27:55.495Z,18.92
2022-10-01T04:29:27.108Z,18.95
2022-10-01T04:31:37.674Z,18.94
2022-10-01T04:33:12.713Z,18.99
2022-10-01T04:34:53.722Z,18.98
2022-10-01T04:36:25.729Z,18.98
2022-10-01T04:38:03.729Z,18.97
2022-10-01T04:39:35.291Z,18.97
2022-10-01T04:41:06.926Z,18.94
2022-10-01T04:42:40.584Z,18.95
2022-10-01T04:44:12.822Z,18.95
2022-10-01T04:45:44.392Z,18.93
2022-10-01T04:47:15.993Z,18.84
2022-10-01T04:48:48.423Z,18.79
2022-10-01T04:50:20.351Z,18.74
2022-10-01T04:51:52.257Z,18.69
2022-10-01T04:53:23.854Z,18.65
2022-10-01T04:54:55.715Z,18.65
2022-10-01T04:56:27.395Z,18.65
2022-10-01T04:57:59.026Z,18.63
2022-10-01T04:59:32.016Z,18.62
2022-10-01T05:01:03.762Z,18.64
2022-10-01T05:02:35.850Z,18.68
2022-10-01T05:04:07.806Z,18.74
2022-10-01T05:05:39.929Z,18.79
2022-10-01T05:07:11.479Z,18.86
2022-10-01T05:08:43.270Z,18.99
2022-10-01T05:10:18.826Z,19.09
2022-10-01T05:11:52.268Z,19.19
2022-10-01T05:13:24.154Z,19.34
2022-10-01T05:14:56.025Z,19.43
2022-10-01T05:16:27.688Z,19.45
2022-10-01T05:17:59.412Z,19.42
2022-10-01T05:19:32.342Z,19.41
2022-10-01T05:21:07.283Z,19.41
2022-10-01T05:22:39.313Z,19.42
2022-10-01T05:24:11.021Z,19.44
2022-10-01T05:25:43.234Z,19.46
2022-10-01T05:27:14.829Z,19.44
2022-10-01T05:28:46.639Z,19.43
2022-10-01T05:30:22.437Z,19.43
2022-10-01T05:31:54.227Z,19.43
2022-10-01T05:33:26.088Z,19.45
2022-10-01T05:34:57.673Z,19.47
2022-10-01T05:36:29.784Z,19.51
2022-10-01T05:38:02.106Z,19.58
2022-10-01T05:39:33.976Z,19.57
2022-10-01T05:41:05.772Z,19.54
2022-10-01T05:42:37.454Z,19.56
2022-10-01T05:44:08.988Z,19.58
2022-10-01T05:45:40.776Z,19.65
2022-10-01T05:47:13.569Z,19.69
2022-10-01T05:48:45.443Z,19.78
2022-10-01T05:50:17.778Z,19.89
2022-10-01T05:51:49.859Z,20.09
2022-10-01T05:53:22.533Z,20.28
2022-10-01T05:54:54.161Z,20.51
2022-10-01T05:56:26.035Z,20.65
2022-10-01T05:57:58.337Z,20.73
2022-10-01T05:59:31.966Z,20.89
2022-10-01T06:01:05.079Z,21.11
2022-10-01T06:02:36.878Z,21.35
2022-10-01T06:04:09.888Z,21.59
2022-10-01T06:05:43.876Z,21.73
2022-10-01T06:07:15.708Z,21.79
2022-10-01T06:08:47.393Z,21.81
2022-10-01T06:10:19.663Z,21.96
2022-10-01T06:11:51.217Z,22.00
2022-10-01T06:13:23.060Z,22.05
2022-10-01T06:14:55.086Z,22.03
2022-10-01T06:16:26.899Z,22.11
2022-10-01T06:18:02.236Z,22.22
2022-10-01T06:19:33.911Z,22.32
2022-10-01T06:21:05.592Z,22.39
2022-10-01T06:22:37.387Z,22.52
2022-10-01T06:24:09.419Z,22.65
2022-10-01T06:25:41.933Z,22.67
2022-10-01T06:27:13.495Z,22.61
2022-10-01T06:28:45.331Z,22.48
2022-10-01T06:30:17.185Z,22.39
2022-10-01T06:31:48.882Z,22.50
2022-10-01T06:33:20.950Z,22.60
2022-10-01T06:34:52.792Z,22.68
2022-10-01T06:36:24.881Z,22.74
2022-10-01T06:37:57.011Z,22.81
2022-10-01T06:39:29.136Z,22.90
2022-10-01T06:41:01.251Z,22.90
2022-10-01T06:42:33.245Z,22.88
2022-10-01T06:44:05.042Z,22.96
2022-10-01T06:45:40.893Z,22.98
2022-10-01T06:47:13.075Z,23.10
2022-10-01T06:48:46.898Z,23.25
2022-10-01T06:50:19.055Z,23.51
2022-10-01T06:52:09.517Z,23.76
2022-10-01T06:53:41.309Z,24.04
2022-10-01T06:55:16.523Z,24.13
2022-10-01T06:56:48.681Z,24.11
2022-10-01T06:58:21.157Z,24.11
2022-10-01T06:59:52.678Z,24.12
2022-10-01T07:01:24.328Z,24.29
2022-10-01T07:02:56.170Z,24.37
2022-10-01T07:04:27.943Z,24.43
2022-10-01T07:06:05.343Z,24.53
2022-10-01T07:07:37.409Z,24.66
2022-10-01T07:09:08.914Z,24.73
2022-10-01T07:10:41.147Z,24.75
2022-10-01T07:12:13.357Z,24.75
2022-10-01T07:13:45.180Z,24.69
2022-10-01T07:15:17.426Z,24.52
2022-10-01T07:16:49.532Z,24.52
2022-10-01T07:18:21.336Z,24.41
2022-10-01T07:19:53.012Z,24.29
2022-10-01T07:21:24.760Z,24.18
2022-10-01T07:22:56.879Z,24.18
2022-10-01T07:24:28.740Z,24.23
2022-10-01T07:26:00.251Z,24.22
2022-10-01T07:27:31.789Z,24.17
2022-10-01T07:29:03.833Z,24.25
2022-10-01T07:30:35.502Z,24.42
2022-10-01T07:32:09.037Z,24.59
2022-10-01T07:33:41.097Z,24.60
2022-10-01T07:35:12.741Z,24.66
2022-10-01T07:36:45.607Z,24.65
2022-10-01T07:38:17.450Z,24.59
2022-10-01T07:39:49.065Z,24.39
2022-10-01T07:41:20.815Z,24.24
2022-10-01T07:42:54.729Z,24.06
2022-10-01T07:44:28.091Z,23.94
2022-10-01T07:46:00.395Z,23.88
2022-10-01T07:47:32.331Z,23.82
2022-10-01T07:49:04.247Z,23.71
2022-10-01T07:50:36.169Z,23.63
2022-10-01T07:52:12.405Z,23.59
2022-10-01T07:53:44.796Z,23.45
2022-10-01T07:55:16.408Z,23.39
2022-10-01T07:56:49.342Z,23.33
2022-10-01T07:58:24.355Z,23.31
2022-10-01T07:59:56.294Z,23.24
2022-10-01T08:01:28.955Z,23.20
2022-10-01T08:03:00.748Z,23.15
2022-10-01T08:04:50.961Z,23.11
2022-10-01T08:06:25.589Z,22.99
2022-10-01T08:08:01.133Z,22.91
2022-10-01T08:09:32.768Z,22.88
2022-10-01T08:11:04.357Z,22.82
2022-10-01T08:12:36.312Z,22.81
2022-10-01T08:14:07.928Z,22.84
2022-10-01T08:15:39.752Z,22.89
2022-10-01T08:17:11.350Z,22.95
2022-10-01T08:18:43.293Z,23.00
2022-10-01T08:20:16.818Z,22.99
2022-10-01T08:21:49.605Z,23.00
2022-10-01T08:23:21.753Z,22.97
2022-10-01T08:24:53.743Z,22.93
2022-10-01T08:26:25.590Z,22.75
2022-10-01T08:27:57.875Z,22.58
2022-10-01T08:29:29.890Z,22.38
2022-10-01T08:31:07.337Z,22.25
2022-10-01T08:32:39.345Z,22.14
2022-10-01T08:34:10.970Z,22.06
2022-10-01T08:35:43.933Z,21.98
2022-10-01T08:37:16.122Z,21.93
2022-10-01T08:38:48.025Z,21.87
2022-10-01T08:40:19.896Z,21.86
2022-10-01T08:41:54.630Z,21.76
2022-10-01T08:43:29.640Z,21.63
2022-10-01T08:45:04.196Z,21.56
2022-10-01T08:46:36.401Z,21.48
2022-10-01T08:48:17.040Z,21.35
2022-10-01T08:49:49.443Z,21.24
2022-10-01T08:51:30.307Z,21.20
2022-10-01T08:53:02.838Z,21.09
2022-10-01T08:54:34.458Z,21.00
2022-10-01T08:56:06.110Z,20.96
2022-10-01T08:57:39.655Z,20.93
2022-10-01T08:59:32.235Z,20.90
2022-10-01T09:01:04.143Z,20.89
2022-10-01T09:02:36.287Z,20.85
2022-10-01T09:27:52.332Z,20.08
2022-10-01T09:29:26.293Z,20.05
2022-10-01T09:31:06.773Z,20.08
2022-10-01T09:33:05.469Z,20.09
2022-10-01T09:35:44.163Z,20.12
2022-10-01T09:42:33.643Z,20.06
2022-10-01T09:44:06.337Z,19.97
2022-10-01T09:45:38.462Z,19.92
2022-10-01T09:47:18.493Z,19.86
2022-10-01T09:48:53.166Z,19.83
2022-10-01T09:50:28.448Z,19.75
2022-10-01T09:52:06.737Z,19.68
2022-10-01T09:53:59.167Z,19.62
2022-10-01T09:55:34.888Z,19.60
2022-10-01T09:57:08.425Z,19.60
2022-10-01T09:58:40.366Z,19.61
2022-10-01T10:00:15.311Z,19.58
2022-10-01T10:01:48.483Z,19.52
2022-10-01T10:03:38.517Z,19.52
2022-10-01T10:05:17.367Z,19.50
2022-10-01T10:06:49.517Z,19.48
2022-10-01T10:08:26.235Z,19.51
2022-10-01T10:09:57.981Z,19.57
2022-10-01T10:11:30.216Z,19.61
2022-10-01T10:13:02.956Z,19.65
2022-10-01T10:14:35.318Z,19.72
2022-10-01T10:16:11.127Z,19.82
2022-10-01T10:17:44.121Z,19.82
2022-10-01T10:19:16.864Z,19.76
2022-10-01T10:20:51.810Z,19.73
2022-10-01T10:22:26.432Z,19.77
2022-10-01T10:24:01.674Z,19.87
2022-10-01T10:25:33.400Z,19.95
2022-10-01T10:27:05.887Z,20.01
2022-10-01T10:28:44.021Z,20.08
2022-10-01T10:30:16.798Z,20.10
2022-10-01T10:31:51.267Z,20.13
2022-10-01T10:33:23.253Z,20.11
2022-10-01T10:35:00.851Z,20.08
2022-10-01T10:36:35.481Z,20.05
2022-10-01T14:19:31.440Z,24.12
2022-10-01T14:21:28.964Z,24.11
2022-10-01T14:23:07.023Z,24.04
2022-10-01T14:25:05.135Z,24.03
2022-10-01T14:26:42.860Z,24.04
2022-10-01T14:28:20.191Z,24.06
2022-10-01T14:30:22.034Z,24.11
2022-10-01T14:32:13.995Z,24.18
2022-10-01T14:33:52.801Z,24.12
2022-10-01T14:35:41.258Z,24.13
2022-10-01T14:37:16.974Z,24.17
2022-10-01T14:38:50.356Z,24.21
2022-10-01T14:40:25.013Z,24.24
2022-10-01T14:41:57.644Z,24.16
2022-10-01T14:43:30.575Z,24.12
2022-10-01T14:45:17.609Z,24.08
2022-10-01T14:46:50.362Z,24.09
2022-10-01T14:48:41.097Z,24.07
2022-10-01T14:50:17.855Z,24.02
2022-10-01T14:51:57.517Z,23.92
2022-10-01T14:53:30.766Z,23.82
2022-10-01T14:55:13.201Z,23.79
2022-10-01T14:56:45.210Z,23.72
2022-10-01T14:58:19.314Z,23.69
2022-10-01T14:59:54.638Z,23.67
2022-10-01T15:01:29.513Z,23.65
2022-10-01T15:03:15.836Z,23.61
2022-10-01T15:04:52.214Z,23.60
2022-10-01T15:06:24.888Z,23.54
2022-10-01T15:07:56.980Z,23.52
2022-10-01T15:09:33.564Z,23.54
2022-10-01T15:11:08.621Z,23.52
2022-10-01T15:12:41.493Z,23.50
2022-10-01T15:14:15.680Z,23.39
2022-10-01T15:15:47.408Z,23.38
2022-10-01T15:17:28.255Z,23.33
2022-10-01T15:19:00.590Z,23.30
2022-10-01T15:20:32.613Z,23.23
2022-10-01T15:22:04.893Z,23.14
2022-10-01T15:23:37.093Z,23.11
2022-10-01T15:25:17.559Z,23.06
2022-10-01T15:26:49.711Z,22.97
2022-10-01T15:28:34.224Z,22.98
2022-10-01T15:30:06.522Z,22.99
2022-10-01T15:31:38.992Z,22.97
2022-10-01T15:33:18.656Z,23.01
2022-10-01T15:34:52.195Z,23.05
2022-10-01T15:36:23.902Z,23.08
2022-10-01T15:38:00.779Z,23.07
2022-10-01T15:39:33.748Z,23.03
2022-10-01T15:41:29.988Z,22.98
2022-10-01T15:43:12.084Z,22.88
2022-10-01T15:44:47.142Z,22.75
2022-10-01T15:46:19.196Z,22.69
2022-10-01T15:47:51.963Z,22.60
2022-10-01T15:49:27.627Z,22.56
2022-10-01T15:51:00.320Z,22.53
2022-10-01T15:52:50.870Z,22.50
2022-10-01T15:54:22.855Z,22.50
2022-10-01T15:55:58.123Z,22.52
2022-10-01T15:57:34.072Z,22.53
2022-10-01T15:59:13.370Z,22.54
2022-10-01T16:00:48.960Z,22.56
2022-10-01T16:02:23.673Z,22.57
2022-10-01T16:03:56.349Z,22.54
2022-10-01T16:05:29.358Z,22.48
2022-10-01T16:07:01.175Z,22.41
2022-10-01T16:08:37.266Z,22.39
2022-10-01T16:10:16.119Z,22.37
2022-10-01T16:11:50.904Z,22.31
2022-10-01T16:13:32.064Z,22.25
2022-10-01T16:15:04.160Z,22.22
2022-10-01T16:16:36.125Z,22.19
2022-10-01T16:18:19.763Z,22.14
2022-10-01T16:19:52.348Z,22.05
2022-10-01T16:21:24.036Z,21.97
2022-10-01T16:23:07.181Z,21.90
2022-10-01T16:24:44.639Z,21.85
2022-10-01T16:26:28.746Z,21.79
2022-10-01T16:28:05.660Z,21.72
2022-10-01T16:29:37.311Z,21.61
2022-10-01T16:31:08.958Z,21.51
2022-10-01T16:32:41.003Z,21.49
2022-10-01T16:34:13.173Z,21.50
2022-10-01T16:35:46.113Z,21.51
2022-10-01T16:37:20.021Z,21.49
2022-10-01T16:38:51.601Z,21.43
2022-10-01T16:40:24.256Z,21.35
2022-10-01T16:42:18.994Z,21.30
2022-10-01T16:43:47.885Z,21.19
2022-10-01T16:45:24.734Z,21.14
2022-10-01T16:46:56.844Z,21.13
2022-10-01T16:48:29.305Z,21.13
2022-10-01T16:50:01.272Z,21.13
2022-10-01T16:51:33.111Z,21.11
2022-10-01T16:53:05.150Z,21.09
2022-10-01T16:54:37.061Z,21.15
2022-10-01T16:56:11.998Z,21.17
2022-10-01T16:57:43.697Z,21.20
2022-10-01T16:59:15.838Z,21.23
2022-10-01T17:00:48.029Z,21.21
2022-10-01T17:02:19.763Z,21.16
2022-10-01T17:03:51.485Z,21.14
2022-10-01T17:05:30.314Z,21.17
2022-10-01T17:07:02.299Z,21.13
2022-10-01T17:08:33.846Z,21.10
2022-10-01T17:10:06.610Z,21.02
2022-10-01T17:11:39.556Z,20.97
2022-10-01T17:13:14.013Z,20.95
2022-10-01T17:14:45.736Z,20.92
2022-10-01T17:16:19.470Z,20.92
2022-10-01T17:17:54.841Z,20.94
2022-10-01T17:19:27.136Z,20.95
2022-10-01T17:21:00.128Z,20.95
2022-10-01T17:22:32.217Z,20.94
2022-10-01T17:24:03.929Z,20.91
2022-10-01T17:25:36.242Z,20.89
2022-10-01T17:27:08.083Z,20.87
2022-10-01T17:28:39.987Z,20.91
2022-10-01T17:30:12.278Z,20.97
2022-10-01T17:31:46.655Z,21.01
2022-10-01T17:33:22.655Z,21.03
2022-10-01T17:34:54.685Z,21.08
2022-10-01T17:36:27.108Z,21.09
2022-10-01T17:37:59.207Z,21.06
2022-10-01T17:39:31.353Z,21.02
2022-10-01T17:41:03.236Z,21.01
2022-10-01T17:42:35.770Z,20.98
2022-10-01T17:44:07.838Z,20.99
2022-10-01T17:45:39.918Z,20.97
2022-10-01T17:47:12.201Z,20.97
2022-10-01T17:48:44.339Z,21.02
2022-10-01T17:50:16.346Z,21.06
2022-10-01T17:51:49.483Z,21.07
2022-10-01T17:53:21.368Z,21.05
2022-10-01T17:54:53.316Z,21.09
2022-10-01T17:56:25.861Z,21.08
2022-10-01T17:57:58.278Z,21.09
2022-10-01T17:59:33.276Z,21.09
2022-10-01T18:01:08.049Z,21.04
2022-10-01T18:02:42.832Z,20.99
2022-10-01T18:04:16.008Z,21.00
2022-10-01T18:05:47.770Z,21.00
2022-10-01T18:07:20.538Z,20.96
2022-10-01T18:08:56.678Z,20.95
2022-10-01T18:10:29.411Z,21.00
2022-10-01T18:12:01.529Z,21.03
2022-10-01T18:13:33.923Z,21.03
2022-10-01T18:15:05.848Z,21.03
2022-10-01T18:16:37.801Z,21.04
2022-10-01T18:20:01.462Z,20.94
2022-10-01T18:21:33.168Z,20.99
2022-10-01T18:23:05.016Z,21.02
2022-10-01T18:24:36.680Z,20.98
2022-10-01T18:26:09.116Z,20.97
2022-10-01T18:27:41.089Z,20.96
2022-10-01T18:29:16.909Z,21.03
2022-10-01T18:30:48.956Z,21.08
2022-10-01T18:32:24.484Z,21.12
2022-10-01T18:33:56.852Z,21.13
2022-10-01T18:35:32.239Z,21.12
2022-10-01T18:37:30.198Z,21.13
2022-10-01T18:39:11.909Z,21.11
2022-10-01T18:40:43.624Z,21.09
2022-10-01T18:42:17.444Z,21.08
2022-10-01T18:43:49.042Z,21.12
2022-10-01T18:45:35.761Z,21.17
2022-10-01T18:47:07.634Z,21.20
2022-10-01T18:48:57.830Z,21.20
2022-10-01T18:50:48.199Z,21.25
2022-10-01T18:52:26.853Z,21.27
2022-10-01T18:54:10.910Z,21.23
2022-10-01T18:55:48.510Z,21.20
2022-10-01T18:57:35.149Z,21.17
2022-10-01T18:59:13.933Z,21.18
2022-10-01T19:00:48.563Z,21.17
2022-10-01T19:02:22.932Z,21.22
2022-10-01T19:04:07.130Z,21.21
2022-10-01T19:05:48.316Z,21.16
2022-10-01T19:07:38.565Z,21.10
2022-10-01T19:09:16.402Z,21.09
2022-10-01T19:10:54.854Z,21.07
2022-10-01T19:12:27.235Z,21.08
2022-10-01T19:14:20.220Z,21.07
2022-10-01T19:15:53.062Z,21.01
2022-10-01T19:17:43.172Z,20.92
2022-10-01T19:19:24.822Z,20.84
2022-10-01T19:21:14.069Z,20.78
2022-10-01T19:22:48.919Z,20.73
2022-10-01T19:24:29.789Z,20.73
2022-10-01T19:26:20.293Z,20.76
2022-10-01T19:28:07.950Z,20.76
2022-10-01T19:29:58.899Z,20.81
2022-10-01T19:31:40.489Z,20.84
2022-10-01T19:33:12.364Z,20.89
2022-10-01T19:34:49.933Z,20.93
2022-10-01T19:36:25.902Z,20.87
2022-10-01T19:38:04.482Z,20.72
2022-10-01T19:39:36.904Z,20.57
2022-10-01T19:41:25.295Z,20.44
2022-10-01T19:43:15.181Z,20.35
2022-10-01T19:44:54.680Z,20.29
2022-10-01T19:46:27.484Z,20.31
2022-10-01T19:48:11.174Z,20.37
2022-10-01T19:49:42.964Z,20.40
2022-10-01T19:51:15.808Z,20.44
2022-10-01T19:52:51.775Z,20.46
2022-10-01T19:54:25.438Z,20.52
2022-10-01T19:55:58.657Z,20.56
2022-10-01T19:57:30.822Z,20.58
2022-10-01T19:59:07.369Z,20.62
2022-10-01T20:00:39.706Z,20.61
2022-10-01T20:02:15.636Z,20.63
2022-10-01T20:04:03.397Z,20.66
2022-10-01T20:05:38.232Z,20.69
2022-10-01T20:07:14.302Z,20.72
2022-10-01T20:08:53.225Z,20.72
2022-10-01T20:10:41.949Z,20.73
2022-10-01T20:12:16.568Z,20.73
2022-10-01T20:13:51.369Z,20.72
2022-10-01T20:15:52.855Z,20.70
2022-10-01T20:17:26.328Z,20.67
2022-10-01T20:19:05.025Z,20.62
2022-10-01T20:20:45.782Z,20.54
2022-10-01T20:22:23.966Z,20.52
2022-10-01T20:24:04.811Z,20.48
2022-10-01T20:25:42.031Z,20.46
2022-10-01T20:27:20.158Z,20.47
2022-10-01T20:29:03.950Z,20.46
2022-10-01T20:30:40.258Z,20.43
2022-10-01T20:32:13.981Z,20.42
2022-10-01T20:33:57.943Z,20.44
2022-10-01T20:35:40.927Z,20.44
2022-10-01T20:37:25.350Z,20.46
2022-10-01T20:39:15.453Z,20.47
2022-10-01T20:40:49.979Z,20.51
2022-10-01T20:42:24.795Z,20.51
2022-10-01T20:43:56.996Z,20.52
2022-10-01T20:45:29.483Z,20.53
2022-10-01T20:47:02.542Z,20.51
2022-10-01T20:48:35.732Z,20.48
2022-10-01T20:50:12.555Z,20.44
2022-10-01T20:51:46.308Z,20.43
2022-10-01T20:53:30.598Z,20.37
2022-10-01T20:55:18.820Z,20.28
2022-10-01T20:57:00.917Z,20.21
2022-10-01T20:58:36.267Z,20.15
2022-10-01T21:00:08.739Z,20.10
2022-10-01T21:01:41.759Z,20.08
2022-10-01T21:03:26.691Z,20.07
2022-10-01T21:05:02.859Z,20.05
2022-10-01T21:06:39.352Z,20.00
2022-10-01T21:08:16.030Z,19.92
2022-10-01T21:09:47.988Z,19.86
2022-10-01T21:11:32.460Z,19.79
2022-10-01T21:13:07.857Z,19.76
2022-10-01T21:14:45.681Z,19.73
2022-10-01T21:16:20.536Z,19.69
2022-10-01T21:17:58.640Z,19.66
2022-10-01T21:19:38.567Z,19.56
2022-10-01T21:21:24.007Z,19.37
2022-10-01T21:23:05.892Z,19.15
2022-10-01T21:24:56.821Z,18.97
2022-10-01T21:26:35.951Z,18.86
2022-10-01T21:28:26.377Z,18.81
2022-10-01T21:30:03.134Z,18.85
2022-10-01T21:31:54.157Z,18.83
2022-10-01T21:33:27.413Z,18.80
2022-10-01T21:35:02.412Z,18.73
2022-10-01T21:36:51.062Z,18.71
2022-10-01T21:38:31.664Z,18.65
2022-10-01T21:40:12.257Z,18.51
2022-10-01T21:41:59.716Z,18.45
2022-10-01T21:43:31.403Z,18.39
2022-10-01T21:45:07.563Z,18.31
2022-10-01T21:46:40.367Z,18.27
2022-10-01T21:48:16.253Z,18.22
2022-10-01T21:49:53.071Z,18.17
2022-10-01T21:51:46.602Z,18.09
2022-10-01T21:53:33.370Z,17.99
2022-10-01T21:55:14.675Z,17.98
2022-10-01T21:57:04.745Z,18.05
2022-10-01T21:58:52.163Z,18.18
2022-10-01T22:00:26.460Z,18.27
2022-10-01T22:02:03.958Z,18.37
2022-10-01T22:03:37.512Z,18.41
2022-10-01T22:05:12.026Z,18.41
2022-10-01T22:06:46.189Z,18.48
2022-10-01T22:08:18.591Z,18.46
2022-10-01T22:19:57.142Z,18.37
2022-10-01T22:21:35.641Z,18.41
2022-10-01T22:23:08.683Z,18.45
2022-10-01T22:24:44.613Z,18.48
2022-10-01T22:26:17.732Z,18.54
2022-10-01T22:27:49.665Z,18.60
2022-10-01T22:29:22.600Z,18.65
2022-10-01T22:30:54.200Z,18.69
2022-10-01T22:32:27.074Z,18.76
2022-10-01T22:34:00.581Z,18.79
2022-10-01T22:35:45.617Z,18.82
2022-10-01T22:37:19.756Z,18.84
2022-10-01T22:38:56.177Z,18.85
2022-10-01T22:40:29.505Z,18.84
2022-10-01T22:42:06.618Z,18.80
2022-10-01T22:43:40.936Z,18.76
2022-10-01T22:45:14.080Z,18.74
2022-10-01T22:47:04.459Z,18.69
2022-10-01T22:48:39.143Z,18.65
2022-10-01T22:50:14.364Z,18.62
2022-10-01T22:52:02.743Z,18.62
2022-10-01T22:53:44.356Z,18.54
2022-10-01T22:55:20.801Z,18.50
2022-10-01T22:57:00.125Z,18.46
2022-10-01T22:58:45.954Z,18.45
2022-10-01T23:00:18.902Z,18.47
2022-10-01T23:02:05.105Z,18.50
2022-10-01T23:03:49.435Z,18.54
2022-10-01T23:05:40.247Z,18.57
2022-10-01T23:07:14.816Z,18.56
2022-10-01T23:08:51.031Z,18.57
2022-10-01T23:10:26.949Z,18.58
2022-10-01T23:11:58.899Z,18.56
2022-10-01T23:13:34.986Z,18.52
2022-10-01T23:15:14.248Z,18.49
2022-10-01T23:17:04.797Z,18.45
2022-10-01T23:18:55.366Z,18.39
2022-10-01T23:20:33.473Z,18.42
2022-10-01T23:22:28.300Z,18.45
2022-10-01T23:24:09.316Z,18.48
2022-10-01T23:25:56.553Z,18.53
2022-10-01T23:27:34.162Z,18.55
2022-10-01T23:29:08.522Z,18.54
2022-10-01T23:30:40.127Z,18.50
2022-10-01T23:32:23.203Z,18.46
2022-10-01T23:34:24.069Z,18.41
2022-10-01T23:36:14.227Z,18.39
2022-10-01T23:37:51.567Z,18.41
2022-10-01T23:39:37.887Z,18.40
2022-10-01T23:41:12.488Z,18.44
2022-10-01T23:42:46.600Z,18.52
2022-10-01T23:44:20.663Z,18.56
2022-10-01T23:46:01.255Z,18.61
2022-10-01T23:47:36.105Z,18.61
2022-10-01T23:49:11.943Z,18.63
2022-10-01T23:50:43.549Z,18.65
2022-10-01T23:52:17.387Z,18.66
2022-10-01T23:53:59.468Z,18.68
2022-10-01T23:56:01.981Z,18.73
2022-10-01T23:57:34.588Z,18.73
2022-10-01T23:59:24.151Z,18.71
